Wetterstation Vordersexau
Wetterdaten: Woche 19.11.18 - 25.11.18 (KW47)
Datum Zeit Temp. A. Feuchte A. Luftdruck Regen Wind Richtung Taupunkt Windchill Windben
19.11.2018 00:00 -0,9 C 85 % 1013,6 hPa 0,0 l/m 0,0 km/h SO -3,1 C -0,9 C 0,0 km/h
19.11.2018 01:00 -1,5 C 85 % 1012,5 hPa 0,0 l/m 0,0 km/h O-SO -3,7 C -1,5 C 0,0 km/h
19.11.2018 02:00 -1,4 C 85 % 1011,9 hPa 0,0 l/m 0,0 km/h N-NO -3,6 C -1,4 C 0,0 km/h
19.11.2018 03:00 1,1 C 80 % 1011,3 hPa 0,0 l/m 0,0 km/h N-NO -2,0 C 1,1 C 0,0 km/h
19.11.2018 04:00 1,8 C 74 % 1010,9 hPa 0,0 l/m 0,0 km/h NO -2,3 C 1,8 C 0,0 km/h
19.11.2018 05:00 1,6 C 73 % 1010,3 hPa 0,0 l/m 0,0 km/h NO -2,7 C 1,6 C 0,0 km/h
19.11.2018 06:00 1,6 C 73 % 1009,8 hPa 0,0 l/m 0,0 km/h SW -2,7 C 1,6 C 0,0 km/h
19.11.2018 07:00 0,3 C 73 % 1009,4 hPa 0,0 l/m 0,0 km/h W -4,0 C 0,3 C 0,0 km/h
19.11.2018 08:00 -0,8 C 76 % 1009,0 hPa 0,0 l/m 0,0 km/h S -4,5 C -0,8 C 0,0 km/h
19.11.2018 09:00 -0,9 C 77 % 1008,6 hPa 0,0 l/m 0,0 km/h N-NO -4,4 C -0,9 C 0,0 km/h
19.11.2018 10:00 1,8 C 72 % 1007,9 hPa 0,0 l/m 0,0 km/h N-NO -2,7 C 1,8 C 0,0 km/h
19.11.2018 11:00 4,7 C 61 % 1006,7 hPa 0,0 l/m 0,0 km/h N-NO -2,2 C 4,7 C 0,0 km/h
19.11.2018 12:00 4,5 C 58 % 1005,9 hPa 0,0 l/m 0,0 km/h O-NO -3,0 C 4,5 C 0,0 km/h
19.11.2018 13:00 3,8 C 61 % 1005,3 hPa 0,0 l/m 0,0 km/h N-NO -3,0 C 3,8 C 0,0 km/h
19.11.2018 14:00 3,1 C 67 % 1005,1 hPa 0,0 l/m 0,0 km/h N-NO -2,4 C 3,1 C 0,0 km/h
19.11.2018 15:00 2,6 C 70 % 1004,6 hPa 0,0 l/m 0,0 km/h N-NO -2,3 C 2,6 C 0,0 km/h
19.11.2018 16:00 2,3 C 72 % 1004,5 hPa 0,0 l/m 0,0 km/h N-NO -2,2 C 2,3 C 0,0 km/h
19.11.2018 17:00 2,1 C 72 % 1004,1 hPa 0,0 l/m 0,0 km/h O-NO -2,4 C 2,1 C 0,0 km/h
19.11.2018 18:00 2,4 C 71 % 1003,8 hPa 0,0 l/m 0,0 km/h NO -2,3 C 2,4 C 0,0 km/h
19.11.2018 19:00 2,3 C 71 % 1003,7 hPa 0,0 l/m 0,0 km/h N-NO -2,4 C 2,3 C 0,0 km/h
19.11.2018 20:00 1,8 C 72 % 1003,6 hPa 0,0 l/m 0,0 km/h N-NO -2,7 C 1,8 C 0,0 km/h
19.11.2018 21:00 0,8 C 74 % 1003,3 hPa 0,0 l/m 0,0 km/h N-NO -3,3 C 0,8 C 0,0 km/h
19.11.2018 22:00 -0,4 C 76 % 1003,3 hPa 0,0 l/m 0,0 km/h N-NO -4,1 C -0,4 C 0,0 km/h
19.11.2018 23:00 -1,4 C 79 % 1002,6 hPa 0,0 l/m 0,0 km/h N-NO -4,6 C -1,4 C 0,0 km/h
20.11.2018 00:00 -2,1 C 81 % 1002,5 hPa 0,0 l/m 0,0 km/h N-NO -4,9 C -2,1 C 0,0 km/h
20.11.2018 01:00 -2,2 C 83 % 1001,8 hPa 0,0 l/m 0,0 km/h O -4,7 C -2,2 C 0,0 km/h
20.11.2018 02:00 -2,7 C 83 % 1001,4 hPa 0,0 l/m 0,0 km/h O -5,2 C -2,7 C 0,0 km/h
20.11.2018 03:00 -3,1 C 84 % 1001,2 hPa 0,0 l/m 0,0 km/h O-NO -5,4 C -3,1 C 0,0 km/h
20.11.2018 04:00 -3,1 C 84 % 1001,2 hPa 0,0 l/m 0,0 km/h O-NO -5,4 C -3,1 C 0,0 km/h
20.11.2018 05:00 -3,4 C 85 % 1001,8 hPa 0,0 l/m 0,0 km/h O-NO -5,5 C -3,4 C 0,0 km/h
20.11.2018 06:00 -3,6 C 85 % 1002,1 hPa 0,0 l/m 0,0 km/h O-NO -5,7 C -3,6 C 0,0 km/h
20.11.2018 07:00 -3,7 C 86 % 1002,1 hPa 0,0 l/m 0,0 km/h O-NO -5,7 C -3,7 C 0,0 km/h
20.11.2018 08:00 -2,2 C 85 % 1002,1 hPa 0,0 l/m 0,0 km/h O-NO -4,4 C -2,2 C 0,0 km/h
20.11.2018 09:00 0,1 C 85 % 1002,3 hPa 0,0 l/m 0,0 km/h O-NO -2,1 C 0,1 C 0,0 km/h
20.11.2018 10:00 1,9 C 83 % 1002,1 hPa 0,0 l/m 0,0 km/h SW -0,7 C 1,9 C 0,0 km/h
20.11.2018 11:00 2,8 C 79 % 1002,3 hPa 0,0 l/m 0,0 km/h W-SW -0,5 C 2,8 C 0,0 km/h
20.11.2018 12:00 3,8 C 74 % 1002,1 hPa 0,0 l/m 0,0 km/h W-SW -0,4 C 3,8 C 0,0 km/h
20.11.2018 13:00 3,9 C 73 % 1001,8 hPa 0,0 l/m 0,0 km/h W-NW -0,5 C 3,9 C 0,0 km/h
20.11.2018 14:00 3,9 C 71 % 1002,3 hPa 0,0 l/m 0,0 km/h W -0,9 C 3,9 C 0,0 km/h
20.11.2018 15:00 3,3 C 73 % 1002,8 hPa 0,0 l/m 0,0 km/h W-NW -1,1 C 3,3 C 0,0 km/h
20.11.2018 16:00 2,2 C 76 % 1002,7 hPa 0,0 l/m 0,0 km/h W-NW -1,6 C 2,2 C 0,0 km/h
20.11.2018 17:00 1,0 C 78 % 1003,5 hPa 0,0 l/m 0,0 km/h W-NW -2,4 C 1,0 C 0,0 km/h
20.11.2018 18:00 0,6 C 81 % 1003,5 hPa 0,0 l/m 0,0 km/h W-NW -2,3 C 0,6 C 0,0 km/h
20.11.2018 19:00 -0,3 C 81 % 1004,0 hPa 0,0 l/m 0,0 km/h N-NW -3,2 C -0,3 C 0,0 km/h
20.11.2018 20:00 -1,1 C 83 % 1004,9 hPa 0,0 l/m 0,0 km/h N-NW -3,6 C -1,1 C 0,0 km/h
20.11.2018 21:00 -1,4 C 84 % 1005,5 hPa 0,0 l/m 0,0 km/h N-NW -3,7 C -1,4 C 0,0 km/h
20.11.2018 22:00 -1,8 C 85 % 1005,7 hPa 0,0 l/m 0,0 km/h O -4,0 C -1,8 C 0,0 km/h
20.11.2018 23:00 -1,7 C 85 % 1005,3 hPa 0,0 l/m 0,0 km/h O -3,9 C -1,7 C 0,0 km/h
21.11.2018 00:00 -2,1 C 85 % 1005,9 hPa 0,0 l/m 0,0 km/h O -4,3 C -2,1 C 0,0 km/h
21.11.2018 01:00 -2,8 C 85 % 1006,1 hPa 0,0 l/m 0,0 km/h O -5,0 C -2,8 C 0,0 km/h
21.11.2018 02:00 -2,8 C 85 % 1007,2 hPa 0,0 l/m 0,0 km/h O -5,0 C -2,8 C 0,0 km/h
21.11.2018 03:00 -2,9 C 86 % 1007,8 hPa 0,0 l/m 0,0 km/h O -4,9 C -2,9 C 0,0 km/h
21.11.2018 04:00 -3,1 C 86 % 1008,3 hPa 0,0 l/m 0,0 km/h O -5,1 C -3,1 C 0,0 km/h
21.11.2018 05:00 -3,1 C 86 % 1008,2 hPa 0,0 l/m 0,0 km/h O-NO -5,1 C -3,1 C 0,0 km/h
21.11.2018 06:00 -2,7 C 85 % 1008,4 hPa 0,0 l/m 0,0 km/h O-NO -4,9 C -2,7 C 0,0 km/h
21.11.2018 07:00 -3,1 C 86 % 1009,2 hPa 0,0 l/m 0,0 km/h O-NO -5,1 C -3,1 C 0,0 km/h
21.11.2018 08:00 -1,7 C 84 % 1010,2 hPa 0,0 l/m 0,0 km/h O-NO -4,0 C -1,7 C 0,0 km/h
21.11.2018 09:00 -0,6 C 85 % 1010,9 hPa 0,0 l/m 0,0 km/h O-NO -2,8 C -0,6 C 0,0 km/h
21.11.2018 10:00 0,5 C 85 % 1011,0 hPa 0,0 l/m 0,0 km/h NO -1,7 C 0,5 C 0,0 km/h
21.11.2018 11:00 2,2 C 85 % 1011,2 hPa 0,0 l/m 0,0 km/h N-NW -0,1 C 2,2 C 0,0 km/h
21.11.2018 12:00 2,5 C 82 % 1011,3 hPa 0,0 l/m 0,0 km/h W-NW -0,3 C 2,5 C 0,0 km/h
21.11.2018 13:00 2,8 C 82 % 1011,6 hPa 0,0 l/m 0,0 km/h W 0,0 C 2,8 C 0,0 km/h
21.11.2018 14:00 2,1 C 82 % 1012,1 hPa 0,0 l/m 0,0 km/h W -0,6 C 2,1 C 0,0 km/h
21.11.2018 15:00 0,9 C 84 % 1012,8 hPa 0,0 l/m 0,0 km/h W -1,5 C 0,9 C 0,0 km/h
21.11.2018 16:00 0,4 C 84 % 1013,5 hPa 0,0 l/m 0,0 km/h W -2,0 C 0,4 C 0,0 km/h
21.11.2018 17:00 -0,1 C 85 % 1014,0 hPa 0,0 l/m 0,0 km/h W -2,3 C -0,1 C 0,0 km/h
21.11.2018 18:00 0,2 C 85 % 1014,3 hPa 0,0 l/m 0,0 km/h W -2,0 C 0,2 C 0,0 km/h
21.11.2018 19:00 0,1 C 85 % 1014,6 hPa 0,0 l/m 0,0 km/h W -2,1 C 0,1 C 0,0 km/h
21.11.2018 20:00 -0,1 C 85 % 1015,2 hPa 0,0 l/m 0,0 km/h W -2,3 C -0,1 C 0,0 km/h
21.11.2018 21:00 -0,2 C 85 % 1015,4 hPa 0,0 l/m 0,0 km/h W -2,4 C -0,2 C 0,0 km/h
21.11.2018 22:00 -0,2 C 85 % 1015,4 hPa 0,0 l/m 0,0 km/h W -2,4 C -0,2 C 0,0 km/h
21.11.2018 23:00 -0,4 C 85 % 1015,2 hPa 0,0 l/m 0,0 km/h W -2,6 C -0,4 C 0,0 km/h
22.11.2018 00:00 -0,5 C 85 % 1015,4 hPa 0,0 l/m 0,0 km/h W -2,7 C -0,5 C 0,0 km/h
22.11.2018 01:00 -0,4 C 85 % 1015,3 hPa 0,0 l/m 0,0 km/h W -2,6 C -0,4 C 0,0 km/h
22.11.2018 02:00 -0,5 C 85 % 1015,5 hPa 0,0 l/m 0,0 km/h W -2,7 C -0,5 C 0,0 km/h
22.11.2018 03:00 -1,0 C 85 % 1015,4 hPa 0,0 l/m 0,0 km/h W -3,2 C -1,0 C 0,0 km/h
22.11.2018 04:00 -1,3 C 85 % 1015,5 hPa 0,0 l/m 0,0 km/h W -3,5 C -1,3 C 0,0 km/h
22.11.2018 05:00 -1,8 C 85 % 1015,7 hPa 0,0 l/m 0,0 km/h W -4,0 C -1,8 C 0,0 km/h
22.11.2018 06:00 -2,1 C 85 % 1016,0 hPa 0,0 l/m 0,0 km/h W -4,3 C -2,1 C 0,0 km/h
22.11.2018 07:00 -1,9 C 84 % 1016,0 hPa 0,0 l/m 0,0 km/h W -4,2 C -1,9 C 0,0 km/h
22.11.2018 08:00 -0,4 C 81 % 1016,3 hPa 0,0 l/m 0,0 km/h W -3,3 C -0,4 C 0,0 km/h
22.11.2018 09:00 1,0 C 83 % 1016,4 hPa 0,0 l/m 0,0 km/h W-SW -1,6 C 1,0 C 0,0 km/h
22.11.2018 10:00 2,1 C 85 % 1016,7 hPa 0,0 l/m 0,0 km/h SW -0,2 C 2,1 C 0,0 km/h
22.11.2018 11:00 3,9 C 85 % 1016,6 hPa 0,0 l/m 0,0 km/h SW 1,6 C 3,9 C 0,0 km/h
22.11.2018 12:00 5,1 C 84 % 1016,4 hPa 0,0 l/m 0,0 km/h SW 2,6 C 5,1 C 0,0 km/h
22.11.2018 13:00 6,3 C 81 % 1016,2 hPa 0,0 l/m 0,0 km/h SW 3,3 C 6,3 C 0,0 km/h
22.11.2018 14:00 7,1 C 78 % 1015,4 hPa 0,0 l/m 0,0 km/h SW 3,5 C 7,1 C 0,0 km/h
22.11.2018 15:00 6,9 C 77 % 1015,3 hPa 0,0 l/m 0,0 km/h SW 3,2 C 6,9 C 0,0 km/h
22.11.2018 16:00 4,8 C 77 % 1015,5 hPa 0,0 l/m 0,0 km/h W-NW 1,1 C 4,8 C 0,0 km/h
22.11.2018 17:00 2,3 C 82 % 1016,2 hPa 0,0 l/m 0,0 km/h W-NW -0,4 C 2,3 C 0,0 km/h
22.11.2018 18:00 1,1 C 84 % 1016,8 hPa 0,0 l/m 0,0 km/h W-NW -1,3 C 1,1 C 0,0 km/h
22.11.2018 19:00 0,4 C 85 % 1016,6 hPa 0,0 l/m 0,0 km/h W-NW -1,8 C 0,4 C 0,0 km/h
22.11.2018 20:00 -0,1 C 85 % 1017,0 hPa 0,0 l/m 0,0 km/h W-NW -2,3 C -0,1 C 0,0 km/h
22.11.2018 21:00 -0,8 C 86 % 1017,0 hPa 0,0 l/m 0,0 km/h W-NW -2,8 C -0,8 C 0,0 km/h
22.11.2018 22:00 -1,0 C 85 % 1016,8 hPa 0,0 l/m 0,0 km/h W-NW -3,2 C -1,0 C 0,0 km/h
22.11.2018 23:00 -1,3 C 85 % 1016,9 hPa 0,0 l/m 0,0 km/h W-NW -3,5 C -1,3 C 0,0 km/h
23.11.2018 00:00 -1,5 C 85 % 1017,1 hPa 0,0 l/m 0,0 km/h W-NW -3,7 C -1,5 C 0,0 km/h
23.11.2018 01:00 -1,6 C 85 % 1017,2 hPa 0,0 l/m 0,0 km/h NW -3,8 C -1,6 C 0,0 km/h
23.11.2018 02:00 -1,7 C 84 % 1017,1 hPa 0,0 l/m 0,0 km/h NW -4,0 C -1,7 C 0,0 km/h
23.11.2018 03:00 -2,0 C 84 % 1017,1 hPa 0,0 l/m 0,0 km/h NW -4,3 C -2,0 C 0,0 km/h
23.11.2018 04:00 -1,9 C 84 % 1016,6 hPa 0,0 l/m 0,0 km/h NW -4,2 C -1,9 C 0,0 km/h
23.11.2018 05:00 -1,1 C 83 % 1016,3 hPa 0,0 l/m 0,0 km/h W -3,6 C -1,1 C 0,0 km/h
23.11.2018 06:00 -1,4 C 83 % 1016,2 hPa 0,0 l/m 0,0 km/h W -3,9 C -1,4 C 0,0 km/h
23.11.2018 07:00 -1,6 C 83 % 1016,7 hPa 0,0 l/m 0,0 km/h W -4,1 C -1,6 C 0,0 km/h
23.11.2018 08:00 -0,4 C 81 % 1016,1 hPa 0,0 l/m 0,0 km/h W-NW -3,3 C -0,4 C 0,0 km/h
23.11.2018 09:00 0,2 C 80 % 1016,6 hPa 0,0 l/m 0,0 km/h W-NW -2,8 C 0,2 C 0,0 km/h
23.11.2018 10:00 0,7 C 79 % 1015,8 hPa 0,0 l/m 0,0 km/h W-SW -2,5 C 0,7 C 0,0 km/h
23.11.2018 11:00 0,7 C 79 % 1014,7 hPa 0,0 l/m 0,0 km/h SW -2,5 C 0,7 C 0,0 km/h
23.11.2018 12:00 0,5 C 80 % 1014,3 hPa 0,0 l/m 0,0 km/h SW -2,5 C 0,5 C 0,0 km/h
23.11.2018 13:00 0,9 C 80 % 1013,3 hPa 0,0 l/m 0,0 km/h SW -2,2 C 0,9 C 0,0 km/h
23.11.2018 14:00 0,9 C 80 % 1013,2 hPa 0,0 l/m 0,0 km/h W-SW -2,2 C 0,9 C 0,0 km/h
23.11.2018 15:00 0,7 C 80 % 1012,8 hPa 0,0 l/m 0,0 km/h W-SW -2,3 C 0,7 C 0,0 km/h
23.11.2018 16:00 0,5 C 81 % 1012,5 hPa 0,0 l/m 0,0 km/h W-SW -2,4 C 0,5 C 0,0 km/h
23.11.2018 17:00 0,4 C 81 % 1011,6 hPa 0,0 l/m 0,0 km/h W-SW -2,5 C 0,4 C 0,0 km/h
23.11.2018 18:00 0,4 C 80 % 1010,7 hPa 0,0 l/m 0,0 km/h W-SW -2,6 C 0,4 C 0,0 km/h
23.11.2018 19:00 0,2 C 80 % 1010,6 hPa 0,0 l/m 0,0 km/h W-SW -2,8 C 0,2 C 0,0 km/h
23.11.2018 20:00 0,2 C 80 % 1010,6 hPa 0,0 l/m 0,0 km/h W-SW -2,8 C 0,2 C 0,0 km/h
23.11.2018 21:00 0,4 C 79 % 1009,8 hPa 0,0 l/m 0,0 km/h W-SW -2,8 C 0,4 C 0,0 km/h
23.11.2018 22:00 0,6 C 79 % 1008,9 hPa 0,0 l/m 0,0 km/h W-SW -2,6 C 0,6 C 0,0 km/h
23.11.2018 23:00 0,8 C 79 % 1008,9 hPa 0,5 l/m 0,0 km/h W-SW -2,4 C 0,8 C 0,0 km/h
24.11.2018 00:00 0,8 C 79 % 1009,6 hPa 1,6 l/m 0,0 km/h S-SW -2,4 C 0,8 C 0,0 km/h
24.11.2018 01:00 0,9 C 78 % 1010,0 hPa 0,0 l/m 0,0 km/h S-SW -2,5 C 0,9 C 0,0 km/h
24.11.2018 02:00 1,2 C 77 % 1009,6 hPa 0,5 l/m 0,0 km/h S-SW -2,4 C 1,2 C 0,0 km/h
24.11.2018 03:00 1,5 C 76 % 1009,1 hPa 0,0 l/m 0,0 km/h SW -2,3 C 1,5 C 0,0 km/h
24.11.2018 04:00 1,5 C 76 % 1009,8 hPa 0,0 l/m 0,0 km/h SW -2,3 C 1,5 C 0,0 km/h
24.11.2018 05:00 1,9 C 75 % 1009,6 hPa 0,0 l/m 0,0 km/h NO -2,1 C 1,9 C 0,0 km/h
24.11.2018 06:00 2,9 C 70 % 1009,8 hPa 0,0 l/m 0,0 km/h SW -2,0 C 2,9 C 0,0 km/h
24.11.2018 07:00 5,3 C 64 % 1010,1 hPa 0,0 l/m 8,4 km/h S-SW -0,9 C 3,6 C 4,7 km/h
24.11.2018 08:00 6,9 C 64 % 1010,9 hPa 0,0 l/m 0,0 km/h S 0,6 C 6,9 C 0,0 km/h
24.11.2018 09:00 7,9 C 68 % 1011,0 hPa 0,0 l/m 8,4 km/h S 2,4 C 6,4 C 4,7 km/h
24.11.2018 10:00 9,4 C 85 % 1011,3 hPa 0,0 l/m 35,0 km/h SW 7,0 C -1,2 C 19,4 km/h
24.11.2018 11:00 9,8 C 80 % 1011,2 hPa 0,0 l/m 24,0 km/h S-SW 6,5 C 1,8 C 13,3 km/h
24.11.2018 12:00 10,1 C 75 % 1010,8 hPa 0,0 l/m 21,4 km/h S-SW 5,9 C 3,0 C 11,9 km/h
24.11.2018 13:00 11,5 C 72 % 1010,7 hPa 0,0 l/m 30,5 km/h S 6,6 C 2,7 C 16,9 km/h
24.11.2018 14:00 11,3 C 70 % 1010,5 hPa 0,0 l/m 26,6 km/h S-SW 6,0 C 3,2 C 14,8 km/h
24.11.2018 15:00 10,5 C 70 % 1010,7 hPa 0,0 l/m 0,0 km/h S-SO 5,3 C 10,5 C 0,0 km/h
24.11.2018 16:00 9,4 C 72 % 1010,6 hPa 0,0 l/m 0,0 km/h NO 4,6 C 9,4 C 0,0 km/h
24.11.2018 17:00 6,5 C 78 % 1010,6 hPa 0,0 l/m 0,0 km/h O 2,9 C 6,5 C 0,0 km/h
24.11.2018 18:00 5,4 C 82 % 1010,5 hPa 0,0 l/m 0,0 km/h O-SO 2,6 C 5,4 C 0,0 km/h
24.11.2018 19:00 4,9 C 83 % 1010,5 hPa 0,0 l/m 0,0 km/h O-SO 2,3 C 4,9 C 0,0 km/h
24.11.2018 20:00 4,2 C 84 % 1010,3 hPa 0,0 l/m 0,0 km/h O-NO 1,7 C 4,2 C 0,0 km/h
24.11.2018 21:00 3,6 C 85 % 1010,5 hPa 0,0 l/m 0,0 km/h O-NO 1,3 C 3,6 C 0,0 km/h
24.11.2018 22:00 2,9 C 85 % 1010,0 hPa 0,0 l/m 0,0 km/h O-NO 0,6 C 2,9 C 0,0 km/h
24.11.2018 23:00 2,8 C 85 % 1009,7 hPa 0,0 l/m 0,0 km/h O-SO 0,5 C 2,8 C 0,0 km/h
25.11.2018 00:00 2,6 C 85 % 1009,5 hPa 0,0 l/m 0,0 km/h O 0,3 C 2,6 C 0,0 km/h
25.11.2018 01:00 2,3 C 85 % 1009,2 hPa 0,0 l/m 0,0 km/h O 0,0 C 2,3 C 0,0 km/h
25.11.2018 02:00 1,8 C 85 % 1008,7 hPa 0,0 l/m 0,0 km/h NO -0,4 C 1,8 C 0,0 km/h
25.11.2018 03:00 1,2 C 85 % 1008,0 hPa 0,0 l/m 0,0 km/h NO -1,0 C 1,2 C 0,0 km/h
25.11.2018 04:00 1,3 C 85 % 1007,7 hPa 0,0 l/m 0,0 km/h NO -0,9 C 1,3 C 0,0 km/h
25.11.2018 05:00 -0,1 C 85 % 1007,2 hPa 0,0 l/m 0,0 km/h NO -2,3 C -0,1 C 0,0 km/h
25.11.2018 06:00 -0,6 C 85 % 1006,5 hPa 0,0 l/m 0,0 km/h NO -2,8 C -0,6 C 0,0 km/h
25.11.2018 07:00 -0,8 C 85 % 1006,3 hPa 0,0 l/m 0,0 km/h NO -3,0 C -0,8 C 0,0 km/h
25.11.2018 08:00 0,2 C 83 % 1006,1 hPa 0,0 l/m 0,0 km/h NO -2,3 C 0,2 C 0,0 km/h
25.11.2018 09:00 2,4 C 84 % 1005,3 hPa 0,0 l/m 0,0 km/h SW -0,0 C 2,4 C 0,0 km/h
25.11.2018 11:00 5,3 C 85 % 1004,7 hPa 0,0 l/m 0,0 km/h SW 3,0 C 5,3 C 0,0 km/h
25.11.2018 12:00 6,5 C 84 % 1004,0 hPa 0,0 l/m 0,0 km/h S-SW 4,0 C 6,5 C 0,0 km/h
25.11.2018 13:00 7,6 C 82 % 1003,4 hPa 0,0 l/m 0,0 km/h W-SW 4,7 C 7,6 C 0,0 km/h
25.11.2018 14:00 8,5 C 79 % 1002,9 hPa 0,0 l/m 0,0 km/h W-SW 5,1 C 8,5 C 0,0 km/h
25.11.2018 15:00 7,4 C 80 % 1003,0 hPa 0,0 l/m 0,0 km/h W-SW 4,2 C 7,4 C 0,0 km/h
25.11.2018 16:00 5,8 C 81 % 1002,9 hPa 0,0 l/m 0,0 km/h W-NW 2,8 C 5,8 C 0,0 km/h
25.11.2018 17:00 3,9 C 85 % 1003,1 hPa 0,0 l/m 0,0 km/h W-NW 1,6 C 3,9 C 0,0 km/h
25.11.2018 18:00 3,4 C 85 % 1002,3 hPa 0,0 l/m 0,0 km/h SO 1,1 C 3,4 C 0,0 km/h
25.11.2018 19:00 3,9 C 85 % 1001,9 hPa 0,0 l/m 0,0 km/h S-SW 1,6 C 3,9 C 0,0 km/h
25.11.2018 20:00 3,7 C 85 % 1002,7 hPa 0,0 l/m 0,0 km/h S-SW 1,4 C 3,7 C 0,0 km/h
25.11.2018 21:00 4,1 C 84 % 1002,7 hPa 0,0 l/m 0,0 km/h S-SW 1,6 C 4,1 C 0,0 km/h
25.11.2018 22:00 4,3 C 84 % 1002,7 hPa 0,0 l/m 0,0 km/h O 1,8 C 4,3 C 0,0 km/h
25.11.2018 23:00 4,7 C 84 % 1002,6 hPa 0,0 l/m 0,0 km/h O 2,2 C 4,7 C 0,0 km/h
Min-Datum _ 20.11.18 19.11.18 20.11.18 - 19.11.18 - 20.11.18 20.11.18 19.11.18
_ Min-Zeit 07:53 12:53 03:53 - 00:53 - 06:53 07:53 00:53
Minimum _ -3,7 C 58 % 1001,2 hPa - 0,0 km/h - -5,7 C -3,7 C 0,0 km/h
Max-Datum _ 24.11.18 20.11.18 23.11.18 24.11.18 24.11.18 - 24.11.18 24.11.18 24.11.18
_ Max-Zeit 13:53 07:53 01:53 00:53 10:53 - 10:53 15:53 10:53
Maximum _ 11,5 C 86 % 1017,2 hPa 1,6 l/m 35,0 km/h
SW
- 7,0 C 10,5 C 19,4 km/h
SW
Durchschnitt _ 1,5 C 81 % 1009,5 hPa #2,6 l/m 0,9 km/h W -1,6 C 1,2 C 0,5 km/h
www.sexauwetter.de